May 22, 2022

Time Code Weather Temp. Visibility Clouds Wind METAR/SPECI
9:30 am
V
70 °F 6¼ mi+ - 080°   080° 6 kt METAR LFMK 220730Z AUTO 08006KT 050V110 9999 FEW008 21/18 Q1013 BECMG 08015G25KT
9:00 am
I
68 °F 6¼ mi+ 700 ft 080°   080° 5 kt METAR LFMK 220700Z AUTO 08005KT 060V130 9999 BKN007 20/17 Q1013 BECMG NSC
8:30 am
I
66 °F 6¼ mi+ 600 ft 070°   070° 7 kt METAR LFMK 220630Z AUTO 07007KT 9999 BKN006 19/17 Q1013 BECMG NSC
8:00 am
I
64 °F 6¼ mi+ 500 ft 070°   070° 4 kt METAR LFMK 220600Z AUTO 07004KT 9999 BKN005 18/17 Q1014 BECMG NSC
7:30 am
L
64 °F 5⅝ mi 400 ft 070°   070° 4 kt METAR LFMK 220530Z AUTO 07004KT 040V110 9000 BKN004 18/17 Q1014 BECMG NSC
7:00 am
L
63 °F 5 mi 400 ft 080°   080° 6 kt METAR LFMK 220500Z AUTO 08006KT 060V130 8000 BKN004 17/17 Q1013 BECMG NSC
6:30 am
V
63 °F 5⅝ mi - 090°   090° 5 kt METAR LFMK 220430Z AUTO 09005KT 060V140 9000 SCT005 17/17 Q1013 NOSIG
6:00 am
M
63 °F 3¾ mi - 090°   090° 5 kt METAR LFMK 220400Z AUTO 09005KT 070V130 6000 FEW004 17/17 Q1013 TEMPO OVC002
5:30 am
L
64 °F 3¾ mi 400 ft 090°   090° 5 kt METAR LFMK 220330Z AUTO 09005KT 060V130 6000 BKN004 18/17 Q1013 BECMG NSC
5:00 am
L
64 °F 3⅛ mi 200 ft 090°   090° 9 kt METAR LFMK 220300Z AUTO 09009KT 5000 BR OVC002 18/17 Q1013 BECMG NSC
4:30 am
L
64 °F 4⅜ mi 400 ft 090°   090° 9 kt METAR LFMK 220230Z AUTO 09009KT 060V120 7000 BKN004 18/17 Q1013
4:00 am
V
64 °F 5 mi - 090°   090° 8 kt METAR LFMK 220200Z AUTO 09008KT 060V130 8000 FEW005 18/17 Q1014
3:30 am
V
64 °F 6¼ mi+ - 090°   090° 7 kt METAR LFMK 220130Z AUTO 09007KT 070V140 CAVOK 18/17 Q1014
3:00 am
V
64 °F 6¼ mi+ - 100°   100° 6 kt METAR LFMK 220100Z AUTO 10006KT 070V140 CAVOK 18/17 Q1014
2:30 am
V
64 °F 6¼ mi+ - 100°   100° 5 kt METAR LFMK 220030Z AUTO 10005KT 070V140 CAVOK 18/17 Q1014
2:00 am
V
66 °F 6¼ mi+ - 100°   100° 5 kt METAR LFMK 220000Z AUTO 10005KT 070V130 CAVOK 19/17 Q1015
1:30 am
V
64 °F 6¼ mi+ - 070°   070° 5 kt METAR LFMK 212330Z AUTO 07005KT 040V100 CAVOK 18/17 Q1015
1:00 am
V
66 °F 6¼ mi+ - 060°   060° 5 kt METAR LFMK 212300Z AUTO 06005KT CAVOK 19/17 Q1016
12:30 am
V
66 °F 6¼ mi+ - 060°   060° 6 kt METAR LFMK 212230Z AUTO 06006KT CAVOK 19/17 Q1016
12:00 am
V
70 °F 6¼ mi+ - 090°   090° 4 kt METAR LFMK 212200Z AUTO 09004KT CAVOK 21/17 Q1016

May 21, 2022

Time Code Weather Temp. Visibility Clouds Wind METAR/SPECI
11:30 pm
V
70 °F 6¼ mi+ - 090°   090° 5 kt METAR LFMK 212130Z AUTO 09005KT 060V130 CAVOK 21/17 Q1016
11:00 pm
V
70 °F 6¼ mi+ - 080°   080° 5 kt METAR LFMK 212100Z AUTO 08005KT CAVOK 21/17 Q1016
10:30 pm
V
72 °F 6¼ mi+ - 070°   070° 5 kt METAR LFMK 212030Z AUTO 07005KT CAVOK 22/16 Q1016
10:00 pm
V
73 °F 6¼ mi+ - 100°   100° 5 kt METAR LFMK 212000Z AUTO 10005KT 070V140 CAVOK 23/16 Q1016
9:30 pm
V
73 °F 6¼ mi+ - 100°   100° 3 kt METAR LFMK 211930Z AUTO 10003KT 070V130 CAVOK 23/16 Q1016
9:00 pm
V
75 °F 6¼ mi+ - 080°   080° 7 kt METAR LFMK 211900Z AUTO 08007KT CAVOK 24/16 Q1016
8:30 pm
V
77 °F 6¼ mi+ - 080°   080° 9 kt METAR LFMK 211830Z AUTO 08009KT CAVOK 25/16 Q1016
8:00 pm
V
79 °F 6¼ mi+ - 070°   070° 10 kt METAR LFMK 211800Z AUTO 07010KT CAVOK 26/16 Q1016 NOSIG
7:30 pm
V
81 °F 6¼ mi+ - 080°   080° 10 kt METAR LFMK 211730Z AUTO 08010KT CAVOK 27/16 Q1016 NOSIG
7:00 pm
V
82 °F 6¼ mi+ - 080°   080° 11 kt METAR LFMK 211700Z AUTO 08011KT CAVOK 28/17 Q1016 NOSIG
6:30 pm
V
82 °F 6¼ mi+ - 090°   090° 11 kt METAR LFMK 211630Z AUTO 09011KT CAVOK 28/16 Q1016 NOSIG
6:00 pm
V
84 °F 6¼ mi+ - 090°   090° 12 kt METAR LFMK 211600Z AUTO 09012KT CAVOK 29/16 Q1016 NOSIG
5:30 pm
V
84 °F 6¼ mi+ - 090°   090° 11 kt METAR LFMK 211530Z AUTO 09011KT 070V150 CAVOK 29/16 Q1017 NOSIG
5:00 pm
V
84 °F 6¼ mi+ - 100°   100° 11 kt METAR LFMK 211500Z AUTO 10011KT 070V150 CAVOK 29/16 Q1017 TEMPO 09015G25KT
4:30 pm
V
84 °F 6¼ mi+ - 090°   090° 12 kt METAR LFMK 211430Z AUTO 09012KT 060V130 CAVOK 29/16 Q1017 TEMPO 09015G25KT
4:00 pm
V
84 °F 6¼ mi+ - 080°   080° 15 kt METAR LFMK 211400Z AUTO 08015KT CAVOK 29/16 Q1017 TEMPO 09015G25KT
3:30 pm
V
84 °F 6¼ mi+ - 090°   090° 15 kt METAR LFMK 211330Z AUTO 09015KT 060V120 CAVOK 29/17 Q1018 TEMPO 09015G25KT
3:00 pm
V
84 °F 6¼ mi+ - 090°   090° 14 kt METAR LFMK 211300Z AUTO 09014KT 060V120 CAVOK 29/17 Q1018 TEMPO 09015G25KT
2:30 pm
V
84 °F 6¼ mi+ - 090°   090° 14 kt METAR LFMK 211230Z AUTO 09014KT 060V130 CAVOK 29/19 Q1018 TEMPO 09015G25KT
2:00 pm
V
82 °F 6¼ mi+ - 080°   080° 16 kt METAR LFMK 211200Z AUTO 08016KT 060V140 CAVOK 28/18 Q1018 TEMPO 09015G25KT
1:30 pm
V
81 °F 6¼ mi+ - 090°   090° 14 kt METAR LFMK 211130Z AUTO 09014KT 060V120 CAVOK 27/18 Q1019 TEMPO 09015G25KT
1:00 pm
V
81 °F 6¼ mi+ - 080°   080° 18 kt METAR LFMK 211100Z AUTO 08018KT CAVOK 27/17 Q1019 TEMPO 09015G25KT
12:30 pm
V
79 °F 6¼ mi+ - 090°   090° 15 kt METAR LFMK 211030Z AUTO 09015KT CAVOK 26/17 Q1019 TEMPO 09015G25KT
12:00 pm
V
79 °F 6¼ mi+ - 080°   080° 18 kt METAR LFMK 211000Z AUTO 08018KT 060V130 CAVOK 26/15 Q1019 NOSIG
11:30 am
V
77 °F 6¼ mi+ - 090°   090° 16 kt METAR LFMK 210930Z AUTO 09016KT CAVOK 25/15 Q1020 NOSIG
11:00 am
V
75 °F 6¼ mi+ - 090°   090° 16 kt METAR LFMK 210900Z AUTO 09016KT CAVOK 24/15 Q1020 NOSIG
10:30 am
V
73 °F 6¼ mi+ - 090°   090° 16 kt METAR LFMK 210830Z AUTO 09016KT CAVOK 23/14 Q1020 NOSIG
10:00 am
V
73 °F 6¼ mi+ - 080°   080° 15 kt METAR LFMK 210800Z AUTO 08015KT CAVOK 23/15 Q1020 NOSIG
9:30 am
V
72 °F 6¼ mi+ - 090°   090° 11 kt METAR LFMK 210730Z AUTO 09011KT 060V120 CAVOK 22/16 Q1021 NOSIG
9:00 am
V
70 °F 6¼ mi+ - 090°   090° 8 kt METAR LFMK 210700Z AUTO 09008KT 060V120 CAVOK 21/16 Q1021 NOSIG
8:30 am
V
66 °F 6¼ mi+ - 090°   090° 7 kt METAR LFMK 210630Z AUTO 09007KT 060V130 CAVOK 19/16 Q1021 NOSIG
8:00 am
V
64 °F 6¼ mi+ - 080°   080° 4 kt METAR LFMK 210600Z AUTO 08004KT 060V130 CAVOK 18/16 Q1021 NOSIG
7:30 am
V
63 °F 6¼ mi+ - 090°   090° 3 kt METAR LFMK 210530Z AUTO 09003KT 060V130 CAVOK 17/16 Q1021 NOSIG
7:00 am
V
61 °F 6¼ mi+ - Var   Var 2 kt METAR LFMK 210500Z AUTO VRB02KT CAVOK 16/16 Q1021 NOSIG
6:30 am
V
59 °F 6¼ mi+ - Var   Var 2 kt METAR LFMK 210430Z AUTO VRB02KT CAVOK 15/15 Q1022 NOSIG
6:00 am
V
59 °F 6¼ mi+ - 070°   070° 3 kt METAR LFMK 210400Z AUTO 07003KT CAVOK 15/15 Q1022 NOSIG
5:30 am
V
61 °F 6¼ mi+ - Var   Var 2 kt METAR LFMK 210330Z AUTO VRB02KT CAVOK 16/15 Q1022 NOSIG
5:00 am
V
59 °F 6¼ mi+ - Var   Var 2 kt METAR LFMK 210300Z AUTO VRB02KT CAVOK 15/15 Q1022 NOSIG
4:30 am
V
61 °F 6¼ mi+ - 070°   070° 3 kt METAR LFMK 210230Z AUTO 07003KT CAVOK 16/15 Q1022
4:00 am
V
61 °F 6¼ mi+ - 080°   080° 2 kt METAR LFMK 210200Z AUTO 08002KT CAVOK 16/15 Q1022
3:30 am
V
61 °F 6¼ mi+ - 080°   080° 2 kt METAR LFMK 210130Z AUTO 08002KT CAVOK 16/15 Q1023
3:00 am
V
61 °F 6¼ mi+ - 040°   040° 1 kt METAR LFMK 210100Z AUTO 04001KT CAVOK 16/15 Q1023
2:30 am
V
61 °F 6¼ mi+ - Var   000° 0 kt METAR LFMK 210030Z AUTO 00000KT CAVOK 16/15 Q1023
2:00 am
V
61 °F 6¼ mi+ - Var   Var 2 kt METAR LFMK 210000Z AUTO VRB02KT CAVOK 16/15 Q1023
1:30 am
V
63 °F 6¼ mi+ - Var   Var 2 kt METAR LFMK 202330Z AUTO VRB02KT CAVOK 17/16 Q1023
1:00 am
V
64 °F 6¼ mi+ - 070°   070° 2 kt METAR LFMK 202300Z AUTO 07002KT CAVOK 18/16 Q1024
12:30 am
V
66 °F 6¼ mi+ - 090°   090° 3 kt METAR LFMK 202230Z AUTO 09003KT 060V120 CAVOK 19/16 Q1024
12:00 am
V
68 °F 6¼ mi+ - 110°   110° 4 kt METAR LFMK 202200Z AUTO 11004KT 070V150 CAVOK 20/16 Q1024

May 20, 2022

Time Code Weather Temp. Visibility Clouds Wind METAR/SPECI
11:30 pm
V
68 °F 6¼ mi+ - 100°   100° 3 kt METAR LFMK 202130Z AUTO 10003KT 060V150 CAVOK 20/16 Q1024
11:00 pm
V
70 °F 6¼ mi+ - 110°   110° 4 kt METAR LFMK 202100Z AUTO 11004KT 050V150 CAVOK 21/16 Q1024
10:30 pm
V
68 °F 6¼ mi+ - 090°   090° 4 kt METAR LFMK 202030Z AUTO 09004KT 070V130 CAVOK 20/16 Q1024
10:00 pm
V
70 °F 6¼ mi+ - 080°   080° 5 kt METAR LFMK 202000Z AUTO 08005KT 060V120 CAVOK 21/16 Q1024
9:30 pm
V
72 °F 6¼ mi+ - 100°   100° 5 kt METAR LFMK 201930Z AUTO 10005KT 060V140 CAVOK 22/16 Q1023
9:00 pm
V
72 °F 6¼ mi+ - 090°   090° 7 kt METAR LFMK 201900Z AUTO 09007KT 060V130 CAVOK 22/16 Q1023
8:30 pm
V
73 °F 6¼ mi+ - 100°   100° 7 kt METAR LFMK 201830Z AUTO 10007KT 060V160 CAVOK 23/16 Q1023 NOSIG
8:00 pm
V
75 °F 6¼ mi+ - 100°   100° 7 kt METAR LFMK 201800Z AUTO 10007KT 060V160 CAVOK 24/16 Q1023 NOSIG
7:30 pm
V
77 °F 6¼ mi+ - 100°   100° 7 kt METAR LFMK 201730Z AUTO 10007KT 060V150 CAVOK 25/17 Q1022 NOSIG
7:00 pm
V
77 °F 6¼ mi+ - 100°   100° 8 kt METAR LFMK 201700Z AUTO 10008KT 050V160 CAVOK 25/16 Q1022 TEMPO 09016G26KT
6:30 pm
V
77 °F 6¼ mi+ - 090°   090° 10 kt METAR LFMK 201630Z AUTO 09010KT 060V150 CAVOK 25/16 Q1022 TEMPO 09016G26KT
6:00 pm
V
79 °F 6¼ mi+ - 090°   090° 10 kt METAR LFMK 201600Z AUTO 09010KT 060V120 CAVOK 26/16 Q1022 TEMPO 09016G26KT
5:30 pm
V
79 °F 6¼ mi+ - 090°   090° 12 kt METAR LFMK 201530Z AUTO 09012KT 060V140 CAVOK 26/16 Q1022 TEMPO 09016G26KT
5:00 pm
V
79 °F 6¼ mi+ - 090°   090° 13 kt METAR LFMK 201500Z AUTO 09013KT 060V130 CAVOK 26/16 Q1022 TEMPO 09016G26KT
4:30 pm
V
79 °F 6¼ mi+ - 090°   090° 15 kt METAR LFMK 201430Z AUTO 09015KT CAVOK 26/16 Q1022 NOSIG
4:00 pm
V
79 °F 6¼ mi+ - 090°   090° 12 kt METAR LFMK 201400Z AUTO 09012KT 060V130 CAVOK 26/16 Q1022 NOSIG
3:30 pm
V
79 °F 6¼ mi+ - 080°   080° 19 kt METAR LFMK 201330Z AUTO 08019KT CAVOK 26/16 Q1022 NOSIG
3:00 pm
V
81 °F 6¼ mi+ - 090°   090° 19 kt METAR LFMK 201300Z AUTO 09019KT 060V120 CAVOK 27/16 Q1022 NOSIG
2:30 pm
V
81 °F 6¼ mi+ - 080°   080° 20 kt METAR LFMK 201230Z AUTO 08020KT CAVOK 27/16 Q1022 NOSIG
2:00 pm
V
81 °F 6¼ mi+ - 080°   080° 19 kt METAR LFMK 201200Z AUTO 08019KT CAVOK 27/16 Q1022 NOSIG
1:30 pm
V
81 °F 6¼ mi+ - 080°   080° 21 kt METAR LFMK 201130Z AUTO 08021KT CAVOK 27/16 Q1022 NOSIG
1:00 pm
V
81 °F 6¼ mi+ - 080°   080° 23 kt METAR LFMK 201100Z AUTO 08023KT CAVOK 27/16 Q1022 NOSIG
12:30 pm
V
77 °F 6¼ mi+ - 090°   090° 18 kt METAR LFMK 201030Z AUTO 09018KT 070V130 CAVOK 25/16 Q1022 NOSIG
12:00 pm
V
77 °F 6¼ mi+ - 090°   090° 23 kt METAR LFMK 201000Z AUTO 09023KT CAVOK 25/16 Q1022 TEMPO 09018G30KT
11:30 am
V
75 °F 6¼ mi+ - 080°   080° 24 35 kt METAR LFMK 200930Z AUTO 08024G35KT CAVOK 24/16 Q1022 BECMG 09015KT
11:00 am
V
75 °F 6¼ mi+ - 090°   090° 21 kt METAR LFMK 200900Z AUTO 09021KT 9999 FEW024 24/17 Q1022 TEMPO 09018G30KT
10:30 am
V
73 °F 6¼ mi+ - 090°   090° 18 29 kt METAR LFMK 200830Z AUTO 09018G29KT 9999 SCT022 23/17 Q1022 NOSIG
10:00 am
M
72 °F 6¼ mi+ 2,100 ft 080°   080° 20 31 kt METAR LFMK 200800Z AUTO 08020G31KT 060V120 9999 BKN021 22/17 Q1023 NOSIG
9:30 am
M
70 °F 6¼ mi+ 2,000 ft 090°   090° 17 28 kt METAR LFMK 200730Z AUTO 09017G28KT 070V130 9999 OVC020 21/16 Q1022 NOSIG
9:00 am
M
70 °F 6¼ mi+ 2,100 ft 090°   090° 17 29 kt METAR LFMK 200700Z AUTO 09017G29KT 9999 OVC021 21/16 Q1023 NOSIG
Older data

Download our app

Easy access to all aviation weather on your mobile phone and tablet.
With many features not available on the website, like offline support and a personal airport list.

We and third parties follow your internet behavior on our website with cookies. If you continue, we assume you agree with our cookie policy. Learn more